Estación Meteorológica Peña el Pijo (Robertgarden) [ 01/30/23 13:43:56 CET ]

Fecha Hora Presion(HPa) Temp (°C) Humedad % Rocio (°C) Viento ( m/s) Direccion Lluvia 1Hora(mm) Lluvia 24H(mm) LLuvia Total(mm)
2010-Oct-27 01:01:11 1018.000 3.6 43 -7.9         169.90
2010-Oct-27 02:01:14 1017.800 3.2 44 -8.0         169.90
2010-Oct-27 03:03:25 1017.500 2.1 47 -8.1         169.90
2010-Oct-27 04:01:14 1017.600 0.9 52 -7.9         169.90
2010-Oct-27 05:01:12 1017.400 0.6 53 -7.9         169.90
2010-Oct-27 06:01:13 1017.400 0.1 55 -7.9         169.90
2010-Oct-27 07:01:12 1017.300 0.5 53 -8.0         169.90
2010-Oct-27 08:01:14 1017.300 0.2 54 -8.1         169.90
2010-Oct-27 09:01:12 1017.800 -0.5 57 -8.0         169.90
2010-Oct-27 10:01:12 1018.300 6.1 47 -4.4         169.90
2010-Oct-27 11:01:13 1018.200 12.4 29 -5.2         169.90
2010-Oct-27 12:01:17 1018.100 17.9 19 -6.3         169.90
2010-Oct-27 13:01:16 1017.800 23.8 11 -8.7         169.90
2010-Oct-27 14:01:17 1017.400 25.2 10 -8.6         169.90
2010-Oct-27 15:01:17 1016.700 25.9 - -         169.90
2010-Oct-27 16:01:17 1016.000 25.2 - -         169.90
2010-Oct-27 17:01:18 1016.000 24.4 - -         169.90
2010-Oct-27 18:01:12 1016.000 20.4 10 -12.2         169.90
2010-Oct-27 19:01:11 1016.300 16.3 14 -11.9         169.90
2010-Oct-27 20:01:11 1017.200 11.1 24 -8.9         169.90
2010-Oct-27 21:01:12 1017.900 7.4 33 -7.9         169.90
2010-Oct-27 22:01:13 1018.000 5.9 38 -7.4         169.90
2010-Oct-27 23:01:15 1018.300 5.1 41 -7.1         169.90

Temperatura Máxima:25°    Temperatura Mínima:
Presión Máxima:1018.300 Hpa    Presión Mínima:1016.000 Hpa


Volver